Time;durP1;ratioP1;P1;durP2;ratioP2;P2;SDS_P1;SDS_P2;PMS_P1;PMS_P2;Temp;Humidity;BMP_temperature;BMP_pressure;BME280_temperature;BME280_humidity;BME280_pressure;Samples;Min_cycle;Max_cycle;Signal;HPM_P1;HPM_P2
2021/07/02 00:02:39;;;;;;;6.30;4.20;;;16.50;99.90;;;16.44;94.19;98252.81;5090280;27;20888;-67
2021/07/02 00:05:21;;;;;;;7.60;4.80;;;16.50;99.90;;;16.44;93.44;98244.09;5076317;27;20829;-67
2021/07/02 00:08:02;;;;;;;4.87;4.10;;;16.50;99.90;;;16.42;93.48;98240.75;5082614;27;20823;-67
2021/07/02 00:10:44;;;;;;;5.20;4.47;;;16.50;99.90;;;16.40;95.10;98248.78;5086174;27;20833;-67
2021/07/02 00:13:25;;;;;;;8.47;4.20;;;16.50;99.90;;;16.40;94.33;98243.53;5058620;27;20835;-68
2021/07/02 00:16:07;;;;;;;7.60;4.43;;;16.50;99.90;;;16.37;95.02;98242.97;5075851;27;20879;-68
2021/07/02 00:18:48;;;;;;;8.83;4.90;;;16.50;99.90;;;16.36;93.13;98241.34;5061674;28;20865;-67
2021/07/02 00:21:29;;;;;;;7.20;4.80;;;16.40;99.90;;;16.33;94.69;98236.34;5075557;27;20828;-68
2021/07/02 00:24:11;;;;;;;8.00;6.00;;;16.50;99.90;;;16.31;95.51;98252.28;5129267;27;21406;-67
2021/07/02 00:26:52;;;;;;;7.27;4.57;;;16.40;99.90;;;16.30;95.37;98241.88;5072002;27;21191;-68
2021/07/02 00:29:33;;;;;;;7.07;4.53;;;16.40;99.90;;;16.29;94.88;98233.13;5074251;27;20840;-67
2021/07/02 00:32:15;;;;;;;7.43;5.17;;;16.40;99.90;;;16.27;93.97;98232.44;5096545;27;20834;-67
2021/07/02 00:34:56;;;;;;;5.93;4.33;;;16.40;99.90;;;16.28;94.26;98238.53;5059368;28;20833;-67
2021/07/02 00:37:38;;;;;;;9.67;5.10;;;16.40;99.90;;;16.28;93.92;98223.59;5067186;27;20839;-67
2021/07/02 00:40:19;;;;;;;8.47;5.23;;;16.40;99.90;;;16.27;95.21;98232.44;5115571;27;20841;-68
2021/07/02 00:43:00;;;;;;;6.30;4.80;;;16.40;99.90;;;16.26;93.89;98227.31;5107824;27;20846;-67
2021/07/02 00:45:42;;;;;;;5.00;4.30;;;16.40;99.90;;;16.25;94.04;98230.91;5090589;27;20824;-68
2021/07/02 00:48:23;;;;;;;5.80;4.47;;;16.40;99.90;;;16.23;94.12;98224.94;5058157;27;20845;-68
2021/07/02 00:51:06;;;;;;;5.77;4.47;;;16.40;99.90;;;16.21;94.21;98226.88;5082182;27;20831;-67
2021/07/02 00:53:48;;;;;;;6.27;4.23;;;16.40;99.90;;;16.19;94.75;98226.16;5093212;27;21191;-67
2021/07/02 00:56:29;;;;;;;6.43;4.57;;;16.40;99.90;;;16.17;93.46;98230.72;5099948;27;20841;-68
2021/07/02 00:59:10;;;;;;;8.17;5.13;;;16.30;99.90;;;16.15;93.61;98230.03;5062422;27;20836;-68
2021/07/02 01:01:52;;;;;;;6.40;5.00;;;16.30;99.90;;;16.15;94.45;98228.22;5104238;27;20829;-67
2021/07/02 01:04:33;;;;;;;6.77;5.10;;;16.30;99.90;;;16.15;95.80;98232.66;5105667;27;21201;-68
2021/07/02 01:07:16;;;;;;;10.00;4.87;;;16.20;99.90;;;16.12;94.71;98239.03;5070044;27;20841;-68
2021/07/02 01:09:58;;;;;;;7.90;4.60;;;16.20;99.90;;;16.11;94.26;98232.09;5057976;27;21179;-67
2021/07/02 01:12:41;;;;;;;5.53;4.43;;;16.20;99.90;;;16.09;94.58;98231.41;5096326;27;20827;-68
2021/07/02 01:15:26;;;;;;;8.70;5.80;;;16.20;99.90;;;16.06;93.55;98223.78;5076066;27;21185;-67
2021/07/02 01:18:15;;;;;;;6.27;5.00;;;16.20;99.90;;;16.07;94.96;98227.22;5091943;27;20814;-67
2021/07/02 01:20:58;;;;;;;7.30;5.60;;;16.20;99.90;;;16.05;94.28;98214.19;5083379;27;20835;-68
2021/07/02 01:23:41;;;;;;;8.47;5.60;;;16.20;99.90;;;16.05;95.70;98213.38;5076680;28;20831;-67
2021/07/02 01:26:23;;;;;;;6.87;6.00;;;16.10;99.90;;;16.03;96.15;98218.78;5076303;28;21339;-67
2021/07/02 01:29:05;;;;;;;6.93;5.63;;;16.20;99.90;;;16.04;95.29;98225.72;5058879;27;20834;-67
2021/07/02 01:31:47;;;;;;;8.70;5.70;;;16.10;99.90;;;16.06;95.56;98225.56;5076273;28;20831;-67
2021/07/02 01:34:28;;;;;;;6.50;4.80;;;16.20;99.90;;;16.05;95.96;98214.19;5081441;27;20825;-67
2021/07/02 01:37:12;;;;;;;8.73;5.70;;;16.10;99.90;;;16.06;94.75;98228.22;5114518;27;20834;-67
2021/07/02 01:39:54;;;;;;;7.37;4.93;;;16.20;99.90;;;16.07;95.25;98230.72;5129752;27;21176;-67
2021/07/02 01:42:37;;;;;;;6.57;5.50;;;16.20;99.90;;;16.07;94.04;98230.72;5076223;27;20814;-67
2021/07/02 01:45:21;;;;;;;7.60;5.97;;;16.20;99.90;;;16.08;94.25;98229.72;5092799;27;20833;-67
2021/07/02 01:48:04;;;;;;;5.73;4.73;;;16.20;99.90;;;16.07;94.86;98228.06;5060343;27;20820;-67
2021/07/02 01:50:46;;;;;;;6.87;4.50;;;16.20;99.90;;;16.06;95.04;98225.56;5077513;27;20823;-67
2021/07/02 01:53:31;;;;;;;7.00;5.10;;;16.10;99.90;;;16.06;93.49;98229.03;5081161;27;21179;-67
2021/07/02 01:56:12;;;;;;;7.50;5.20;;;16.10;99.90;;;16.04;95.79;98220.44;5077212;27;20817;-67
2021/07/02 01:58:57;;;;;;;9.40;4.80;;;16.10;99.90;;;16.05;94.91;98226.53;5093959;27;20821;-67
2021/07/02 02:01:47;;;;;;;7.43;5.27;;;16.10;99.90;;;16.03;95.78;98229.31;5092025;27;20840;-68
2021/07/02 02:04:31;;;;;;;6.90;5.00;;;16.10;99.90;;;16.02;94.61;98233.88;5061566;27;20839;-68
2021/07/02 02:07:12;;;;;;;8.47;4.80;;;16.10;99.90;;;16.02;94.60;98232.06;5063973;28;20836;-67
2021/07/02 02:09:57;;;;;;;6.10;4.80;;;16.10;99.90;;;16.03;94.94;98231.09;5058599;27;20852;-68
2021/07/02 02:12:38;;;;;;;7.60;4.87;;;16.10;99.90;;;16.02;95.29;98232.88;5062413;27;21420;-67
2021/07/02 02:15:21;;;;;;;6.40;5.00;;;16.10;99.90;;;16.03;94.46;98228.47;5069850;27;20830;-67
2021/07/02 02:18:06;;;;;;;10.00;5.80;;;16.10;99.90;;;16.04;96.67;98230.97;5126517;27;21732;-67
2021/07/02 02:20:52;;;;;;;8.87;5.10;;;16.10;99.90;;;16.06;94.85;98233.47;5058531;27;20818;-68
2021/07/02 02:23:33;;;;;;;8.63;4.30;;;16.10;99.90;;;16.03;96.24;98239.81;5113682;27;20819;-68
2021/07/02 02:26:16;;;;;;;10.63;6.03;;;16.10;99.90;;;16.02;94.79;98226.81;5123422;27;20893;-68
2021/07/02 02:28:58;;;;;;;9.37;5.07;;;16.10;99.90;;;15.99;95.17;98232.34;5082708;27;20823;-68
2021/07/02 02:31:39;;;;;;;8.87;5.10;;;16.10;99.90;;;15.98;95.27;98235.09;5083570;27;21413;-67
2021/07/02 02:34:27;;;;;;;6.70;4.70;;;16.10;99.90;;;15.94;95.82;98229.28;5087699;27;20836;-67
2021/07/02 02:37:08;;;;;;;7.60;4.87;;;16.10;99.90;;;15.91;95.99;98228.72;5132180;27;20820;-67
2021/07/02 02:39:50;;;;;;;5.73;4.27;;;16.00;99.90;;;15.91;96.14;98228.72;5094287;27;20831;-67
2021/07/02 02:42:31;;;;;;;6.00;4.50;;;16.00;99.90;;;15.88;94.35;98227.19;5087969;27;20902;-68
2021/07/02 02:45:13;;;;;;;7.50;4.90;;;16.00;99.90;;;15.83;95.39;98232.03;5077421;27;20829;-67
2021/07/02 02:47:55;;;;;;;5.47;4.60;;;16.00;99.90;;;15.80;95.12;98229.66;5061990;28;20833;-67
2021/07/02 02:50:37;;;;;;;9.67;4.57;;;15.90;99.90;;;15.77;95.30;98227.28;5117219;27;21387;-67
2021/07/02 02:53:18;;;;;;;9.50;4.80;;;15.90;99.90;;;15.77;95.96;98218.56;5098770;27;20839;-67
2021/07/02 02:56:00;;;;;;;6.20;4.67;;;15.90;99.90;;;15.73;95.50;98220.63;5105163;27;20832;-68
2021/07/02 02:58:41;;;;;;;6.57;4.27;;;15.80;99.90;;;15.71;93.96;98226.97;5104545;27;20841;-67
2021/07/02 03:01:23;;;;;;;8.07;5.30;;;15.80;99.90;;;15.69;95.40;98224.47;5113531;27;20816;-67
2021/07/02 03:04:07;;;;;;;7.43;4.73;;;15.80;99.90;;;15.65;93.24;98219.63;5100470;27;20830;-67
2021/07/02 03:06:49;;;;;;;5.80;4.30;;;15.80;99.90;;;15.63;93.96;98221.56;5100346;27;20838;-67
2021/07/02 03:09:30;;;;;;;7.43;5.00;;;15.70;99.90;;;15.61;94.52;98223.50;5125299;27;21409;-68
2021/07/02 03:12:12;;;;;;;5.40;4.20;;;15.70;99.90;;;15.57;95.19;98225.56;5086310;27;21210;-67
2021/07/02 03:14:54;;;;;;;7.93;4.90;;;15.70;99.90;;;15.56;93.81;98223.06;5060674;27;21332;-67
2021/07/02 03:17:36;;;;;;;6.50;4.70;;;15.70;99.90;;;15.53;94.11;98230.34;5120876;27;21185;-68
2021/07/02 03:20:19;;;;;;;9.97;4.40;;;15.70;99.90;;;15.49;93.73;98232.44;5081152;27;21420;-68
2021/07/02 03:23:00;;;;;;;6.33;4.40;;;15.60;99.90;;;15.45;92.15;98225.75;5063025;27;20818;-67
2021/07/02 03:25:42;;;;;;;7.80;4.73;;;15.60;99.90;;;15.42;94.24;98228.66;5124048;27;20833;-67
2021/07/02 03:28:23;;;;;;;8.53;4.53;;;15.60;99.90;;;15.40;93.83;98229.75;5071996;27;20817;-67
2021/07/02 03:31:04;;;;;;;9.03;6.00;;;15.60;99.90;;;15.36;94.39;98231.78;5072379;27;21380;-67
2021/07/02 03:33:47;;;;;;;9.90;4.90;;;15.60;99.90;;;15.35;92.33;98240.66;5065167;27;20829;-68
2021/07/02 03:36:29;;;;;;;9.17;5.33;;;15.50;99.90;;;15.31;92.86;98235.81;5095943;27;20834;-67
2021/07/02 03:39:10;;;;;;;6.53;3.97;;;15.50;99.90;;;15.29;93.64;98235.94;5058781;28;20845;-68
2021/07/02 03:41:52;;;;;;;5.90;4.37;;;15.40;99.90;;;15.27;94.15;98231.75;5059571;28;20838;-67
2021/07/02 03:44:35;;;;;;;6.83;4.43;;;15.40;99.90;;;15.23;94.43;98239.06;5062589;27;20827;-67
2021/07/02 03:47:16;;;;;;;6.30;4.50;;;15.40;99.90;;;15.20;93.29;98241.97;5088164;27;20828;-68
2021/07/02 03:49:59;;;;;;;8.77;4.53;;;15.30;99.90;;;15.19;94.16;98244.72;5065954;27;20833;-67
2021/07/02 03:52:40;;;;;;;17.17;5.47;;;15.30;99.90;;;15.15;94.17;98244.13;5132791;27;20842;-67
2021/07/02 03:55:22;;;;;;;5.80;4.43;;;15.30;99.90;;;15.14;93.95;98244.25;5067257;28;21178;-68
2021/07/02 03:58:04;;;;;;;6.13;4.70;;;15.30;99.90;;;15.11;93.12;98244.50;5066823;27;20834;-66
2021/07/02 04:00:46;;;;;;;6.20;4.90;;;15.20;99.90;;;15.10;94.46;98246.28;5073423;27;21375;-67
2021/07/02 04:03:29;;;;;;;6.07;4.50;;;15.20;99.90;;;15.08;93.95;98240.31;5074792;27;20816;-68
2021/07/02 04:06:09;;;;;;;6.43;4.37;;;15.20;99.90;;;15.07;94.19;98245.72;5099258;27;20861;-67
2021/07/02 04:08:50;;;;;;;7.00;4.43;;;15.20;99.90;;;15.05;93.97;98245.00;5081778;27;20834;-67
2021/07/02 04:11:32;;;;;;;6.70;4.10;;;15.20;99.90;;;15.07;93.86;98239.63;5060091;27;20832;-67
2021/07/02 04:14:13;;;;;;;7.00;3.90;;;15.20;99.90;;;15.07;94.11;98250.13;5133786;27;20787;-67
2021/07/02 04:16:55;;;;;;;5.90;4.43;;;15.20;99.90;;;15.07;93.41;98247.50;5077533;27;20726;-68
2021/07/02 04:19:37;;;;;;;10.77;5.40;;;15.20;99.90;;;15.08;93.97;98252.63;5089335;27;20826;-68
2021/07/02 04:22:17;;;;;;;5.40;4.20;;;15.10;99.90;;;15.09;94.26;98243.78;5072950;27;20824;-67
2021/07/02 04:24:59;;;;;;;6.10;4.40;;;15.20;99.90;;;15.16;93.93;98245.75;5085264;27;20831;-67
2021/07/02 04:27:42;;;;;;;9.67;4.50;;;15.30;99.90;;;15.21;94.88;98255.91;5097073;27;20840;-67
2021/07/02 04:30:23;;;;;;;5.67;4.30;;;15.30;99.90;;;15.26;95.50;98251.09;5118663;27;20833;-68
2021/07/02 04:33:05;;;;;;;8.00;5.20;;;15.30;99.90;;;15.28;94.09;98252.66;5094028;27;20848;-67
2021/07/02 04:35:47;;;;;;;7.37;5.20;;;15.40;99.90;;;15.30;94.36;98260.41;5074626;27;21401;-67
2021/07/02 04:38:28;;;;;;;6.47;4.37;;;15.40;99.90;;;15.32;93.68;98266.34;5103261;27;21206;-67
2021/07/02 04:41:09;;;;;;;8.50;4.60;;;15.40;99.90;;;15.35;94.62;98260.84;5075864;28;20848;-68
2021/07/02 04:43:50;;;;;;;6.63;4.67;;;15.50;99.90;;;15.40;95.95;98266.56;5109914;27;20836;-68
2021/07/02 04:46:32;;;;;;;7.80;4.27;;;15.40;99.90;;;15.46;95.76;98261.59;5071536;27;21450;-68
2021/07/02 04:49:13;;;;;;;7.13;4.30;;;15.60;99.90;;;15.52;95.71;98268.16;5097328;27;21211;-68
2021/07/02 04:51:55;;;;;;;8.57;5.27;;;15.60;99.90;;;15.62;93.18;98270.69;5073597;27;20825;-67
2021/07/02 04:54:36;;;;;;;12.07;4.60;;;15.60;99.90;;;15.73;93.28;98267.97;5101027;27;20868;-67
2021/07/02 04:57:18;;;;;;;5.90;4.57;;;15.80;99.90;;;15.83;94.82;98268.84;5102113;27;20854;-68
2021/07/02 05:00:01;;;;;;;8.83;4.70;;;15.80;99.90;;;15.92;93.89;98272.47;5078018;27;20892;-67
2021/07/02 05:02:42;;;;;;;7.57;5.00;;;15.90;99.90;;;16.02;94.62;98268.09;5049293;27;20769;-68
2021/07/02 05:05:23;;;;;;;10.50;5.50;;;16.00;99.90;;;16.12;93.13;98273.22;5071898;27;20837;-68
2021/07/02 05:08:06;;;;;;;9.43;5.77;;;16.10;99.90;;;16.25;92.06;98270.38;5106306;27;20819;-67
2021/07/02 05:10:47;;;;;;;7.20;6.07;;;16.20;99.90;;;16.40;93.81;98266.41;5086894;27;20808;-67
2021/07/02 05:13:29;;;;;;;9.90;6.60;;;16.30;99.90;;;16.50;92.98;98276.81;5069521;27;20817;-68
2021/07/02 05:16:11;;;;;;;7.20;5.97;;;16.40;99.90;;;16.60;92.21;98274.19;5066761;27;20818;-68
2021/07/02 05:18:52;;;;;;;7.30;5.83;;;16.50;99.90;;;16.66;92.19;98276.28;5074819;27;20820;-68
2021/07/02 05:21:34;;;;;;;7.00;5.83;;;16.60;99.90;;;16.75;91.83;98281.56;5078288;27;20832;-67
2021/07/02 05:24:14;;;;;;;8.57;5.90;;;16.70;99.90;;;16.84;91.90;98279.88;5114250;27;20807;-67
2021/07/02 05:26:56;;;;;;;9.07;6.80;;;16.80;99.90;;;16.97;92.71;98286.53;5073135;27;20820;-68
2021/07/02 05:29:37;;;;;;;9.00;6.27;;;16.90;99.90;;;17.11;92.01;98280.88;5075787;27;21304;-67
2021/07/02 05:32:19;;;;;;;8.30;6.60;;;17.00;99.90;;;17.22;91.38;98280.75;5095261;27;20832;-68
2021/07/02 05:35:18;;;;;;;11.90;7.70;;;17.20;99.90;;;17.26;90.92;98284.75;5065389;27;20841;-67
2021/07/02 05:37:59;;;;;;;13.73;9.93;;;17.20;99.90;;;17.25;91.25;98283.09;5067842;27;20809;-67
2021/07/02 05:40:41;;;;;;;17.40;10.80;;;17.20;99.90;;;17.29;90.86;98287.94;5068313;27;21383;-67
2021/07/02 05:43:22;;;;;;;16.83;12.03;;;17.30;99.90;;;17.44;89.66;98296.22;5090034;27;20828;-67
2021/07/02 05:46:04;;;;;;;16.17;11.67;;;17.40;99.90;;;17.59;90.56;98300.91;5134259;27;20809;-67
2021/07/02 05:48:45;;;;;;;16.47;11.60;;;17.50;99.90;;;17.72;89.67;98297.00;5080220;27;20823;-67
2021/07/02 05:51:26;;;;;;;15.17;11.10;;;17.60;99.90;;;17.82;89.53;98289.88;5075878;27;20829;-67
2021/07/02 05:54:08;;;;;;;12.60;8.80;;;17.70;99.90;;;17.97;88.10;98299.00;5116809;27;21404;-67
2021/07/02 05:56:51;;;;;;;12.00;9.00;;;17.90;99.90;;;18.12;87.33;98292.28;5116759;27;20815;-67
2021/07/02 05:59:32;;;;;;;11.27;8.47;;;18.00;99.90;;;18.15;87.82;98300.75;5078552;27;20839;-67
2021/07/02 06:02:13;;;;;;;9.90;7.70;;;18.10;99.90;;;18.12;86.75;98303.66;5063890;27;20817;-67
2021/07/02 06:04:55;;;;;;;11.13;7.60;;;18.10;99.90;;;18.13;86.63;98305.38;5110596;27;20830;-70
2021/07/02 06:07:45;;;;;;;10.97;8.80;;;18.10;99.90;;;18.16;87.25;98307.72;5043550;28;21208;-72
2021/07/02 06:10:26;;;;;;;9.07;7.57;;;18.10;99.90;;;18.18;86.89;98302.28;5103003;27;20804;-70
2021/07/02 06:13:07;;;;;;;10.77;7.87;;;18.20;99.90;;;18.19;86.03;98296.00;5087148;27;21381;-71
2021/07/02 06:15:49;;;;;;;11.43;8.37;;;18.20;99.90;;;18.18;85.49;98311.03;5059393;27;21178;-71
2021/07/02 06:18:30;;;;;;;11.57;8.30;;;18.20;99.90;;;18.17;85.81;98308.53;5095754;27;21410;-70
2021/07/02 06:21:12;;;;;;;11.00;8.23;;;18.20;99.90;;;18.19;86.73;98307.44;5119455;27;20827;-71
2021/07/02 06:23:53;;;;;;;10.90;7.67;;;18.20;99.90;;;18.17;86.26;98309.34;5069782;27;20810;-71
2021/07/02 06:26:34;;;;;;;10.67;8.00;;;18.20;99.90;;;18.18;85.18;98315.50;5114602;27;20829;-71
2021/07/02 06:29:15;;;;;;;10.87;8.83;;;18.20;99.90;;;18.21;86.29;98315.19;5091119;27;21418;-72
2021/07/02 06:31:57;;;;;;;11.00;7.40;;;18.20;99.90;;;18.30;86.95;98309.03;5128637;27;20806;-70
2021/07/02 06:34:38;;;;;;;11.00;8.57;;;18.30;99.90;;;18.38;86.74;98314.41;5119915;27;20827;-70
2021/07/02 06:37:20;;;;;;;8.87;7.00;;;18.30;99.90;;;18.41;85.30;98314.94;5136575;27;20817;-70
2021/07/02 06:40:01;;;;;;;11.23;8.23;;;18.40;99.90;;;18.45;84.15;98318.97;5075855;27;20817;-70
2021/07/02 06:42:43;;;;;;;11.27;8.33;;;18.40;99.90;;;18.56;84.69;98319.56;5104255;27;20820;-70
2021/07/02 06:45:24;;;;;;;12.07;8.07;;;18.50;99.90;;;18.71;84.74;98326.03;5105249;27;20854;-71
2021/07/02 06:48:07;;;;;;;9.70;7.83;;;18.60;99.90;;;18.93;84.29;98328.25;5097709;27;20746;-71
2021/07/02 06:50:48;;;;;;;11.87;8.57;;;18.80;99.90;;;19.31;83.02;98327.97;5098176;27;20842;-71
2021/07/02 06:53:30;;;;;;;11.57;8.33;;;19.10;99.90;;;19.44;82.05;98334.53;5072229;27;20917;-71
2021/07/02 06:56:13;;;;;;;9.60;7.63;;;19.30;99.90;;;19.60;82.61;98334.66;5099261;27;21389;-71
2021/07/02 06:58:54;;;;;;;10.17;7.60;;;19.40;99.90;;;19.70;80.95;98333.56;5076185;27;21207;-71
2021/07/02 07:01:36;;;;;;;10.00;8.13;;;19.50;99.90;;;19.79;81.13;98337.13;5094287;27;20839;-71
2021/07/02 07:04:17;;;;;;;11.95;8.02;;;19.70;99.90;;;19.76;82.16;98337.41;5099767;27;20804;-71
2021/07/02 07:06:58;;;;;;;9.57;7.30;;;19.60;99.90;;;19.84;80.24;98327.69;5066188;27;20836;-71
2021/07/02 07:09:40;;;;;;;8.93;8.03;;;19.70;99.90;;;19.95;80.06;98332.75;5106347;27;21401;-71
2021/07/02 07:12:21;;;;;;;12.50;8.43;;;19.80;99.90;;;20.08;79.81;98331.34;5072032;27;20829;-71
2021/07/02 07:15:03;;;;;;;11.83;8.20;;;19.90;99.90;;;20.24;80.17;98325.31;5077564;27;21369;-71
2021/07/02 07:17:44;;;;;;;9.80;8.00;;;20.10;99.90;;;20.85;78.84;98333.69;5086098;27;20840;-70
2021/07/02 07:20:26;;;;;;;9.23;8.17;;;20.50;99.90;;;21.33;77.46;98331.94;5107581;27;21421;-71
2021/07/02 07:23:07;;;;;;;11.60;8.70;;;20.90;99.10;;;21.84;76.36;98332.44;5115732;27;20845;-71
2021/07/02 07:25:49;;;;;;;11.27;8.30;;;21.40;98.40;;;22.26;74.09;98347.16;5083939;27;20861;-70
2021/07/02 07:28:30;;;;;;;11.70;8.23;;;21.80;96.60;;;22.52;74.43;98345.09;5101663;27;20834;-72
2021/07/02 07:31:11;;;;;;;9.63;8.40;;;22.10;96.50;;;22.86;74.57;98346.41;5060168;27;21364;-71
2021/07/02 07:33:54;;;;;;;9.63;8.37;;;22.40;96.10;;;23.16;73.07;98345.59;5160022;27;20776;-70
2021/07/02 07:36:37;;;;;;;9.23;8.23;;;22.70;95.20;;;23.41;71.05;98353.25;5068841;27;21195;-71
2021/07/02 07:39:18;;;;;;;9.80;7.50;;;23.00;93.40;;;23.60;71.10;98352.75;5093366;27;21195;-72
2021/07/02 07:42:01;;;;;;;8.30;7.40;;;23.20;92.40;;;23.82;70.35;98347.41;5113729;27;20853;-72
2021/07/02 07:44:41;;;;;;;8.73;7.80;;;23.50;91.80;;;24.01;70.57;98354.91;5075258;27;20847;-71
2021/07/02 07:47:23;;;;;;;8.87;7.80;;;23.60;92.20;;;24.24;70.03;98353.81;5092594;27;20850;-71
2021/07/02 07:50:08;;;;;;;9.83;7.73;;;23.90;91.20;;;24.46;67.96;98352.13;5078528;27;20862;-71
2021/07/02 07:52:58;;;;;;;8.57;7.33;;;24.10;89.90;;;24.48;66.96;98344.78;5082473;27;20850;-71
2021/07/02 07:55:40;;;;;;;9.63;8.07;;;24.20;86.60;;;24.69;66.28;98338.47;5077930;27;20853;-72
2021/07/02 07:58:21;;;;;;;9.10;7.50;;;24.30;84.20;;;24.98;67.17;98340.28;5083058;27;20790;-71
2021/07/02 08:01:03;;;;;;;9.60;6.73;;;24.50;85.20;;;25.06;67.59;98340.19;5124091;27;20850;-71
2021/07/02 08:03:44;;;;;;;9.83;7.47;;;24.70;85.30;;;24.98;67.12;98340.28;5075279;27;20823;-71
2021/07/02 08:06:25;;;;;;;11.67;7.50;;;24.70;83.30;;;24.88;68.01;98329.06;5084711;27;20863;-71
2021/07/02 08:09:07;;;;;;;8.37;6.90;;;24.60;84.40;;;25.08;64.41;98333.66;5118851;27;20832;-72
2021/07/02 08:11:48;;;;;;;7.10;6.17;;;24.80;79.60;;;25.10;63.45;98342.28;5059086;27;21167;-72
2021/07/02 08:14:30;;;;;;;7.60;6.77;;;24.80;76.70;;;24.97;64.76;98333.28;5120387;27;20745;-71
2021/07/02 08:17:11;;;;;;;6.83;6.13;;;24.80;77.60;;;24.83;65.57;98336.81;5057866;27;20774;-71
2021/07/02 08:19:52;;;;;;;8.03;6.77;;;24.60;76.70;;;25.08;63.92;98335.47;5111401;27;21405;-71
2021/07/02 08:22:39;;;;;;;7.10;6.40;;;24.80;75.50;;;25.22;62.88;98344.28;5075277;27;24687;-71
2021/07/02 08:25:21;;;;;;;10.57;9.10;;;24.90;74.40;;;25.51;65.77;98344.16;5076089;27;20831;-72
2021/07/02 08:30:48;;;;;;;6.77;6.10;;;25.50;74.60;;;25.77;58.34;98337.25;5104351;27;20846;-71
2021/07/02 08:33:29;;;;;;;6.43;5.83;;;25.30;65.80;;;25.47;59.37;98348.25;5095884;27;20857;-72
2021/07/02 08:36:12;;;;;;;8.53;5.53;;;25.20;66.50;;;25.37;61.38;98352.25;5127695;27;20835;-71
2021/07/02 08:38:54;;;;;;;6.90;6.13;;;25.10;67.70;;;25.17;61.23;98345.88;5073077;28;20770;-71
2021/07/02 08:41:35;;;;;;;7.73;6.83;;;25.00;68.90;;;25.02;60.02;98338.91;5077739;27;20838;-71
2021/07/02 08:44:17;;;;;;;8.70;6.57;;;24.90;67.30;;;25.01;59.32;98343.41;5075688;27;21175;-71
2021/07/02 08:46:59;;;;;;;6.80;6.10;;;24.80;65.70;;;25.04;60.19;98343.03;5116190;27;20843;-72
2021/07/02 08:49:45;;;;;;;11.20;6.73;;;24.80;66.50;;;24.80;59.12;98343.34;5113064;27;20827;-71
2021/07/02 08:52:25;;;;;;;6.97;6.20;;;24.70;64.80;;;24.77;63.06;98338.38;5105036;27;20841;-71
2021/07/02 08:55:08;;;;;;;6.60;5.87;;;24.60;68.90;;;24.89;59.75;98349.41;5082390;27;21417;-71
2021/07/02 08:57:48;;;;;;;6.60;5.90;;;24.70;65.30;;;24.48;59.94;98345.59;5136414;27;20869;-71
2021/07/02 09:00:30;;;;;;;7.07;6.10;;;24.40;63.90;;;24.55;60.68;98335.84;5149477;27;20827;-70
2021/07/02 09:03:27;;;;;;;7.00;5.80;;;24.40;66.80;;;24.61;59.44;98342.25;5083367;27;20784;-71
2021/07/02 09:06:17;;;;;;;6.20;5.60;;;24.50;63.60;;;24.68;58.85;98349.34;5062827;27;20846;-71
2021/07/02 09:09:04;;;;;;;6.57;5.87;;;24.50;63.00;;;25.17;61.21;98346.69;5062746;27;20799;-71
2021/07/02 09:11:46;;;;;;;6.67;6.07;;;24.80;67.20;;;25.46;59.68;98356.44;5081848;27;20745;-72
2021/07/02 09:14:27;;;;;;;7.60;6.00;;;25.10;65.30;;;25.55;60.01;98345.44;5062390;27;20738;-71
2021/07/02 09:17:12;;;;;;;7.60;6.00;;;25.20;64.90;;;25.48;58.69;98347.22;5095606;27;20858;-73
2021/07/02 09:20:15;;;;;;;7.53;6.43;;;25.20;63.00;;;25.27;58.81;98349.91;5064673;27;20827;-70
2021/07/02 09:23:00;;;;;;;6.90;6.30;;;25.10;62.40;;;25.01;59.59;98345.28;5116118;27;20859;-71
2021/07/02 09:25:47;;;;;;;6.87;6.00;;;24.90;63.80;;;24.83;61.42;98352.81;5134630;27;20832;-71
2021/07/02 09:28:31;;;;;;;7.00;6.30;;;24.70;65.30;;;24.69;61.15;98353.69;5139460;27;20856;-71
2021/07/02 09:31:12;;;;;;;7.03;6.10;;;24.60;65.70;;;24.55;61.24;98349.19;5104174;27;21418;-71
2021/07/02 09:33:57;;;;;;;6.90;6.30;;;24.50;65.70;;;24.43;60.89;98352.47;5126312;27;20837;-70
2021/07/02 09:36:38;;;;;;;7.50;6.77;;;24.30;65.20;;;24.44;61.56;98352.28;5059662;28;20843;-71
2021/07/02 09:39:32;;;;;;;9.07;8.13;;;24.30;65.50;;;24.75;62.87;98343.06;5119046;27;21181;-71
2021/07/02 09:42:28;;;;;;;7.13;6.03;;;24.50;68.40;;;25.12;65.04;98350.94;5104121;27;20859;-70
2021/07/02 09:45:13;;;;;;;6.67;6.03;;;24.80;71.70;;;24.84;58.89;98343.81;5073618;27;20849;-71
2021/07/02 09:47:56;;;;;;;7.03;6.33;;;24.70;63.40;;;24.76;62.08;98357.25;5125482;27;20835;-71
2021/07/02 09:50:27;;;;;;;6.70;6.00;;;24.60;66.80;;;25.09;58.98;98355.84;5110611;28;21309;-71
2021/07/02 09:52:58;;;;;;;7.27;6.37;;;24.80;66.00;;;25.29;60.42;98363.88;5110509;28;20693;-71
2021/07/02 09:55:29;;;;;;;9.60;6.60;;;25.00;66.30;;;25.47;59.98;98350.91;5103005;28;21213;-71
2021/07/02 09:58:10;;;;;;;7.03;6.33;;;25.10;64.80;;;25.58;59.65;98353.06;5124657;27;20747;-71
2021/07/02 10:00:45;;;;;;;7.13;6.47;;;25.20;64.50;;;25.39;56.60;98350.19;5117080;27;20722;-72
2021/07/02 10:03:15;;;;;;;7.83;5.80;;;25.10;59.80;;;24.85;59.44;98346.28;5101748;28;20725;-70
2021/07/02 10:05:47;;;;;;;8.13;6.97;;;24.80;62.10;;;24.47;61.98;98351.13;5109056;28;20660;-72
2021/07/02 10:08:17;;;;;;;7.07;6.37;;;24.50;65.30;;;24.44;61.03;98351.47;5135055;27;20739;-72
2021/07/02 10:10:46;;;;;;;7.07;6.37;;;24.40;65.40;;;24.62;59.17;98349.28;5109201;27;20644;-71
2021/07/02 10:13:16;;;;;;;7.10;6.03;;;24.50;62.60;;;24.81;61.08;98354.84;5139789;27;20657;-71
2021/07/02 10:15:46;;;;;;;8.07;6.20;;;24.60;65.60;;;24.70;60.76;98357.97;5130191;27;20655;-71
2021/07/02 10:18:17;;;;;;;7.20;5.20;;;24.40;64.40;;;24.93;59.64;98356.03;5121541;27;20650;-71
2021/07/02 10:20:47;;;;;;;7.33;6.57;;;24.60;63.00;;;25.05;58.11;98352.72;5126603;27;20677;-72
2021/07/02 10:23:26;;;;;;;6.70;6.00;;;24.80;61.50;;;25.17;61.40;98360.03;5107993;28;20647;-72
2021/07/02 10:25:57;;;;;;;6.47;5.50;;;24.80;62.50;;;25.41;58.05;98361.50;5125195;27;20752;-71
2021/07/02 10:28:28;;;;;;;7.37;6.33;;;25.10;62.20;;;25.55;60.05;98358.81;5081371;28;21677;-71
2021/07/02 10:30:58;;;;;;;8.10;6.40;;;25.20;64.20;;;25.73;59.14;98364.56;5122367;27;20687;-72
2021/07/02 10:33:30;;;;;;;8.00;6.40;;;25.40;64.30;;;25.55;57.70;98366.81;5126071;27;20655;-71
2021/07/02 10:36:01;;;;;;;7.13;6.43;;;25.20;60.40;;;25.54;59.36;98365.16;5120162;27;20633;-72
2021/07/02 10:38:40;;;;;;;7.60;6.63;;;25.30;62.70;;;25.36;62.02;98366.63;5125655;27;20694;-71
2021/07/02 10:41:11;;;;;;;7.27;6.33;;;25.20;64.40;;;25.40;58.80;98368.72;5127474;27;20646;-72
2021/07/02 10:44:03;;;;;;;8.50;6.20;;;25.20;62.20;;;25.45;59.28;98365.47;5129632;27;20656;-72
2021/07/02 10:46:33;;;;;;;7.93;6.50;;;25.20;62.30;;;25.41;60.40;98359.69;5124854;27;20720;-72
2021/07/02 10:49:06;;;;;;;7.27;6.50;;;25.20;63.10;;;25.30;57.42;98357.53;5105828;28;21064;-72
2021/07/02 10:51:55;;;;;;;6.80;6.20;;;25.10;59.30;;;25.41;60.78;98361.50;5108673;28;20755;-72
2021/07/02 10:54:34;;;;;;;7.07;5.90;;;25.20;64.00;;;25.42;58.88;98361.31;5121094;27;20636;-71
2021/07/02 10:57:13;;;;;;;7.57;6.87;;;25.20;61.70;;;25.42;60.11;98361.31;5102284;28;20651;-71
2021/07/02 11:00:18;;;;;;;7.83;5.90;;;25.20;62.40;;;25.52;58.99;98371.72;5112785;27;20672;-72
2021/07/02 11:02:47;;;;;;;6.87;5.97;;;25.30;61.50;;;25.61;59.41;98366.88;5112457;27;21030;-72
2021/07/02 11:05:34;;;;;;;6.90;6.13;;;25.40;63.30;;;25.80;60.04;98366.28;5076894;27;20638;-72
2021/07/02 11:08:03;;;;;;;7.40;5.90;;;25.50;62.50;;;25.85;56.14;98369.19;5107914;27;20663;-72
2021/07/02 11:10:58;;;;;;;7.53;5.60;;;25.60;57.70;;;25.80;55.40;98366.28;5109879;27;20687;-72
2021/07/02 11:13:27;;;;;;;11.67;5.40;;;25.50;56.50;;;25.67;53.97;98370.66;5109626;27;20647;-72
2021/07/02 11:16:11;;;;;;;6.20;5.60;;;25.50;55.00;;;25.59;56.92;98371.59;5110097;27;20638;-72
2021/07/02 11:18:42;;;;;;;6.90;6.20;;;25.50;58.10;;;25.48;58.22;98373.94;5109485;27;20776;-72
2021/07/02 11:21:18;;;;;;;7.30;6.57;;;25.40;58.60;;;25.44;58.45;98364.66;5113003;27;20728;-72